Time;durP1;ratioP1;P1;durP2;ratioP2;P2;SDS_P1;SDS_P2;PMS_P1;PMS_P2;Temp;Humidity;BMP_temperature;BMP_pressure;BME280_temperature;BME280_humidity;BME280_pressure;Samples;Min_cycle;Max_cycle;Signal;HPM_P1;HPM_P2
2022/11/03 00:01:36;;;;;;;;;;;;;;;11.31;73.73;101401.19;5046626;28;19975;-58
2022/11/03 00:04:01;;;;;;;;;;;;;;;11.32;73.84;101397.53;5043550;28;20309;-58
2022/11/03 00:06:26;;;;;;;;;;;;;;;11.33;74.17;101396.53;5048948;28;19912;-59
2022/11/03 00:08:51;;;;;;;;;;;;;;;11.32;73.80;101384.25;5040754;28;19928;-59
2022/11/03 00:11:17;;;;;;;;;;;;;;;11.32;74.27;101386.91;5043217;28;20011;-59
2022/11/03 00:13:42;;;;;;;;;;;;;;;11.32;73.96;101386.91;5045426;28;20427;-58
2022/11/03 00:16:09;;;;;;;;;;;;;;;11.34;73.91;101382.25;5047956;28;20015;-59
2022/11/03 00:18:34;;;;;;;;;;;;;;;11.34;73.98;101386.75;5049170;28;19912;-58
2022/11/03 00:21:06;;;;;;;;;;;;;;;11.34;74.02;101376.94;5046614;28;19924;-59
2022/11/03 00:23:33;;;;;;;;;;;;;;;11.36;74.09;101380.25;5047180;28;20391;-58
2022/11/03 00:26:05;;;;;;;;;;;;;;;11.38;73.78;101375.63;5045693;28;19920;-58
2022/11/03 00:28:32;;;;;;;;;;;;;;;11.41;73.69;101358.50;5047595;28;19917;-58
2022/11/03 00:30:57;;;;;;;;;;;;;;;11.44;73.55;101363.50;5046903;28;19928;-59
2022/11/03 00:33:25;;;;;;;;;;;;;;;11.42;73.83;101361.00;5044074;28;19917;-59
2022/11/03 00:35:54;;;;;;;;;;;;;;;11.44;73.86;101352.84;5047909;28;19920;-59
2022/11/03 00:38:20;;;;;;;;;;;;;;;11.45;73.73;101347.38;5045682;28;19968;-58
2022/11/03 00:40:45;;;;;;;;;;;;;;;11.46;73.70;101342.88;5044280;28;19956;-58
2022/11/03 00:43:10;;;;;;;;;;;;;;;11.46;73.38;101341.03;5055146;28;19920;-57
2022/11/03 00:45:35;;;;;;;;;;;;;;;11.46;73.68;101338.38;5041802;28;19917;-58
2022/11/03 00:50:44;;;;;;;;;;;;;;;11.51;73.56;101318.44;5046942;28;19936;-58
2022/11/03 00:53:09;;;;;;;;;;;;;;;11.48;73.71;101317.78;5046316;28;19920;-58
2022/11/03 00:55:34;;;;;;;;;;;;;;;11.48;73.48;101323.09;5042832;28;19920;-58
2022/11/03 00:58:00;;;;;;;;;;;;;;;11.49;73.57;101311.47;5052565;28;19913;-58
2022/11/03 01:00:25;;;;;;;;;;;;;;;11.51;73.61;101307.81;5046401;28;19947;-59
2022/11/03 01:02:50;;;;;;;;;;;;;;;11.53;73.68;101314.63;5049304;28;19916;-58
2022/11/03 01:07:59;;;;;;;;;;;;;;;11.56;73.49;101298.31;5046671;28;19982;-58
2022/11/03 01:10:24;;;;;;;;;;;;;;;11.58;73.60;101299.03;5047442;28;20023;-58
2022/11/03 01:12:49;;;;;;;;;;;;;;;11.61;73.59;101297.84;5051042;28;20431;-58
2022/11/03 01:15:14;;;;;;;;;;;;;;;11.60;73.89;101290.88;5050267;28;19958;-57
2022/11/03 01:17:40;;;;;;;;;;;;;;;11.63;73.71;101283.38;5051949;28;20298;-59
2022/11/03 01:20:05;;;;;;;;;;;;;;;11.66;73.58;101303.50;5042169;28;19925;-58
2022/11/03 01:22:30;;;;;;;;;;;;;;;11.65;73.88;101285.88;5050491;28;20008;-58
2022/11/03 01:24:56;;;;;;;;;;;;;;;11.67;73.94;101278.56;5049346;28;20299;-59
2022/11/03 01:27:21;;;;;;;;;;;;;;;11.66;73.74;101284.88;5049477;28;19923;-58
2022/11/03 01:29:47;;;;;;;;;;;;;;;11.65;74.04;101291.19;5050416;28;19928;-58
2022/11/03 01:32:12;;;;;;;;;;;;;;;11.66;73.69;101272.41;5049837;28;19928;-59
2022/11/03 01:34:38;;;;;;;;;;;;;;;11.68;73.70;101277.56;5050978;28;19920;-58
2022/11/03 01:37:03;;;;;;;;;;;;;;;11.70;73.82;101272.91;5050262;28;20400;-59
2022/11/03 01:39:28;;;;;;;;;;;;;;;11.71;73.76;101259.44;5046763;28;19928;-58
2022/11/03 01:41:53;;;;;;;;;;;;;;;11.73;73.89;101269.91;5049750;28;19917;-58
2022/11/03 01:44:21;;;;;;;;;;;;;;;11.72;74.01;101255.78;5053552;28;19917;-58
2022/11/03 01:46:53;;;;;;;;;;;;;;;11.72;73.84;101257.59;5046553;28;19916;-59
2022/11/03 01:49:18;;;;;;;;;;;;;;;11.74;74.09;101252.94;5046157;28;19923;-59
2022/11/03 01:51:46;;;;;;;;;;;;;;;11.75;73.78;101241.28;5046485;28;20012;-59
2022/11/03 01:54:13;;;;;;;;;;;;;;;11.75;74.09;101243.97;5046209;28;19925;-59
2022/11/03 01:56:41;;;;;;;;;;;;;;;11.76;73.93;101250.94;5046620;28;19917;-60
2022/11/03 01:59:07;;;;;;;;;;;;;;;11.77;74.19;101241.97;5045816;28;19917;-60
2022/11/03 02:01:33;;;;;;;;;;;;;;;11.79;74.13;101240.81;5047446;28;19935;-58
2022/11/03 02:04:01;;;;;;;;;;;;;;;11.81;74.09;101227.34;5046312;28;19917;-58
2022/11/03 02:06:27;;;;;;;;;;;;;;;11.82;74.21;101231.66;5046676;28;20008;-58
2022/11/03 02:08:52;;;;;;;;;;;;;;;11.81;73.99;101227.34;5051331;28;19920;-59
2022/11/03 02:14:01;;;;;;;;;;;;;;;11.87;74.02;101225.88;5048390;28;19944;-58
2022/11/03 02:16:29;;;;;;;;;;;;;;;11.89;74.29;101221.19;5050395;28;19921;-59
2022/11/03 02:18:56;;;;;;;;;;;;;;;11.89;74.25;101203.41;5048620;28;19917;-58
2022/11/03 02:21:26;;;;;;;;;;;;;;;11.87;74.34;101207.22;5051563;28;20419;-59
2022/11/03 02:23:55;;;;;;;;;;;;;;;11.84;74.50;101205.72;5045231;28;19917;-59
2022/11/03 02:26:20;;;;;;;;;;;;;;;11.86;74.81;101222.38;5052131;28;19917;-58
2022/11/03 02:28:45;;;;;;;;;;;;;;;11.91;74.53;101195.25;5051380;28;19931;-58
2022/11/03 02:31:15;;;;;;;;;;;;;;;11.92;74.57;101192.41;5048709;28;19924;-58
2022/11/03 02:33:41;;;;;;;;;;;;;;;11.93;74.21;101188.75;5052968;28;19916;-58
2022/11/03 02:36:21;;;;;;;;;;;;;;;11.92;74.57;101187.09;5048275;28;20380;-59
2022/11/03 02:39:16;;;;;;;;;;;;;;;11.93;74.41;101177.28;5044621;28;20015;-59
2022/11/03 02:41:42;;;;;;;;;;;;;;;11.94;74.47;101181.59;5030383;28;19960;-59
2022/11/03 02:44:12;;;;;;;;;;;;;;;11.96;74.65;101172.44;5044963;28;19995;-59
2022/11/03 02:46:39;;;;;;;;;;;;;;;11.99;74.45;101180.06;5041069;28;19924;-58
2022/11/03 02:49:04;;;;;;;;;;;;;;;11.99;74.43;101165.94;5046905;28;19928;-59
2022/11/03 02:51:29;;;;;;;;;;;;;;;11.99;74.32;101165.94;5046561;28;19916;-60
2022/11/03 02:54:10;;;;;;;;;;;;;;;11.97;74.30;101158.13;5045877;28;19923;-58
2022/11/03 02:56:58;;;;;;;;;;;;;;;11.95;74.42;101152.13;5045701;28;19920;-59
2022/11/03 02:59:26;;;;;;;;;;;;;;;11.94;74.72;101153.16;5046643;28;19962;-58
2022/11/03 03:01:56;;;;;;;;;;;;;;;11.92;74.87;101136.53;5046763;28;20387;-58
2022/11/03 03:04:25;;;;;;;;;;;;;;;11.91;74.63;101140.19;5046532;28;20030;-59
2022/11/03 03:07:00;;;;;;;;;;;;;;;11.90;74.99;101137.69;5043131;28;20353;-58
2022/11/03 03:09:29;;;;;;;;;;;;;;;11.88;75.05;101135.22;5042014;28;19991;-59
2022/11/03 03:11:56;;;;;;;;;;;;;;;11.86;74.88;101128.41;5041947;28;19967;-58
2022/11/03 03:14:35;;;;;;;;;;;;;;;11.83;74.96;101121.56;5043153;28;19960;-60
2022/11/03 03:17:04;;;;;;;;;;;;;;;11.83;75.44;101132.19;5048842;28;19967;-58
2022/11/03 03:19:40;;;;;;;;;;;;;;;11.84;75.06;101120.56;5043526;28;19921;-58
2022/11/03 03:22:27;;;;;;;;;;;;;;;11.83;75.54;101118.91;5046199;28;20440;-59
2022/11/03 03:25:12;;;;;;;;;;;;;;;11.83;75.33;101118.91;5047149;28;19990;-58
2022/11/03 03:27:39;;;;;;;;;;;;;;;11.84;75.30;101117.06;5049173;28;19916;-58
2022/11/03 03:30:05;;;;;;;;;;;;;;;11.83;75.62;101102.09;5044592;28;20689;-57
2022/11/03 03:32:34;;;;;;;;;;;;;;;11.79;75.83;101105.13;5045307;28;19931;-60
2022/11/03 03:35:01;;;;;;;;;;;;;;;11.80;75.60;101108.59;5045579;28;19924;-58
2022/11/03 03:37:28;;;;;;;;;;;;;;;11.79;75.93;101113.09;5047463;28;19920;-59
2022/11/03 03:39:55;;;;;;;;;;;;;;;11.79;75.75;101104.28;5047071;28;19970;-58
2022/11/03 03:42:23;;;;;;;;;;;;;;;11.79;75.75;101083.00;5051387;28;19960;-58
2022/11/03 03:44:49;;;;;;;;;;;;;;;11.79;75.88;101096.31;5044136;28;19917;-57
2022/11/03 03:47:24;;;;;;;;;;;;;;;11.75;75.79;101090.47;5042055;28;19924;-59
2022/11/03 03:49:49;;;;;;;;;;;;;;;11.76;75.91;101092.13;5044158;28;19963;-59
2022/11/03 03:52:14;;;;;;;;;;;;;;;11.75;75.79;101082.47;5050554;28;19960;-58
2022/11/03 03:54:40;;;;;;;;;;;;;;;11.75;76.00;101085.16;5048570;28;19917;-58
2022/11/03 03:57:06;;;;;;;;;;;;;;;11.77;76.33;101084.97;5050119;28;19960;-58
2022/11/03 03:59:31;;;;;;;;;;;;;;;11.77;75.91;101067.19;5042717;28;19917;-58
2022/11/03 04:01:57;;;;;;;;;;;;;;;11.76;76.16;101068.19;5046440;28;19924;-59
2022/11/03 04:04:22;;;;;;;;;;;;;;;11.76;76.25;101062.84;5046930;28;19917;-58
2022/11/03 04:06:47;;;;;;;;;;;;;;;11.77;76.09;101061.03;5046639;28;19921;-58
2022/11/03 04:09:13;;;;;;;;;;;;;;;11.75;76.59;101057.72;5044688;28;20011;-59
2022/11/03 04:22:43;;;;;;;;;;;;;;;11.84;76.90;101063.84;5042908;28;20292;-58
2022/11/03 04:25:08;;;;;;;;;;;;;;;11.85;77.10;101057.53;5044709;28;20297;-59
2022/11/03 04:27:34;;;;;;;;;;;;;;;11.87;77.04;101056.38;5045413;28;19923;-58
2022/11/03 04:30:20;;;;;;;;;;;;;;;11.86;77.29;101057.38;5047672;28;20039;-58
2022/11/03 04:32:46;;;;;;;;;;;;;;;11.88;76.99;101057.22;5054622;28;20010;-59
2022/11/03 04:35:16;;;;;;;;;;;;;;;11.87;77.31;101050.22;5043556;28;20544;-58
2022/11/03 04:37:41;;;;;;;;;;;;;;;11.84;77.02;101046.06;5040265;28;19933;-59
2022/11/03 04:40:12;;;;;;;;;;;;;;;11.85;77.34;101041.56;5043362;28;19976;-59
2022/11/03 04:42:37;;;;;;;;;;;;;;;11.84;77.56;101035.41;5043695;28;19913;-59
2022/11/03 04:45:11;;;;;;;;;;;;;;;11.83;77.71;101033.75;5048266;28;19931;-58
2022/11/03 04:47:36;;;;;;;;;;;;;;;11.84;77.86;101039.91;5052451;28;20398;-58
2022/11/03 04:50:01;;;;;;;;;;;;;;;11.83;77.53;101032.91;5047161;28;21637;-58
2022/11/03 04:52:28;;;;;;;;;;;;;;;11.84;77.58;101023.94;5054018;28;19928;-58
2022/11/03 04:54:53;;;;;;;;;;;;;;;11.83;77.74;101035.59;5054929;28;19924;-58
2022/11/03 04:57:18;;;;;;;;;;;;;;;11.83;78.09;101027.59;5050385;28;19921;-59
2022/11/03 04:59:45;;;;;;;;;;;;;;;11.85;78.00;101037.06;5052743;28;19948;-58
2022/11/03 05:02:13;;;;;;;;;;;;;;;11.86;78.11;101028.09;5050156;28;19921;-59
2022/11/03 05:04:39;;;;;;;;;;;;;;;11.88;78.18;101017.28;5048443;28;19925;-59
2022/11/03 05:07:20;;;;;;;;;;;;;;;11.88;78.16;101003.97;5051206;28;20387;-58
2022/11/03 05:09:46;;;;;;;;;;;;;;;11.90;78.42;101002.81;5047853;28;19920;-59
2022/11/03 05:12:11;;;;;;;;;;;;;;;11.92;78.42;101006.13;5052283;28;20289;-58
2022/11/03 05:14:36;;;;;;;;;;;;;;;11.93;78.72;100996.28;5050103;28;20398;-58
2022/11/03 05:17:01;;;;;;;;;;;;;;;11.95;78.46;100992.44;5052344;28;19923;-58
2022/11/03 05:19:32;;;;;;;;;;;;;;;11.96;78.43;100990.63;5044582;28;19927;-58
2022/11/03 05:21:58;;;;;;;;;;;;;;;11.96;78.89;100993.28;5051930;28;19982;-59
2022/11/03 05:24:26;;;;;;;;;;;;;;;11.94;78.65;100998.78;5049647;28;19917;-58
2022/11/03 05:26:53;;;;;;;;;;;;;;;11.96;78.51;100983.47;5051053;28;19959;-58
2022/11/03 05:29:20;;;;;;;;;;;;;;;11.96;78.62;100979.97;5047705;28;19917;-58
2022/11/03 05:31:46;;;;;;;;;;;;;;;11.95;78.60;100976.47;5050124;28;19971;-59
2022/11/03 05:34:20;;;;;;;;;;;;;;;11.95;78.98;100973.81;5049870;28;19928;-59
2022/11/03 05:36:45;;;;;;;;;;;;;;;11.95;78.68;100965.00;5056272;28;19928;-58
2022/11/03 05:39:25;;;;;;;;;;;;;;;11.92;78.99;100960.03;5045947;28;19912;-58
2022/11/03 05:41:50;;;;;;;;;;;;;;;11.90;79.22;100965.53;5050431;28;19912;-58
2022/11/03 05:44:45;;;;;;;;;;;;;;;11.90;79.29;100960.22;5048295;28;20035;-58
2022/11/03 05:47:33;;;;;;;;;;;;;;;11.91;79.21;100961.06;5035319;28;19917;-58
2022/11/03 05:50:15;;;;;;;;;;;;;;;11.90;79.62;100960.22;5044273;28;20301;-59
2022/11/03 05:52:42;;;;;;;;;;;;;;;11.93;80.11;100951.06;5052673;28;19939;-59
2022/11/03 05:55:19;;;;;;;;;;;;;;;11.94;80.06;100945.56;5052561;28;19951;-58
2022/11/03 05:57:44;;;;;;;;;;;;;;;11.95;79.88;100944.53;5051422;28;19920;-58
2022/11/03 06:00:21;;;;;;;;;;;;;;;11.97;80.06;100944.38;5041973;28;19936;-59
2022/11/03 06:02:48;;;;;;;;;;;;;;;11.97;80.01;100941.72;5044200;28;19917;-59
2022/11/03 06:05:17;;;;;;;;;;;;;;;11.97;80.00;100945.19;5048375;28;19913;-59
2022/11/03 06:07:42;;;;;;;;;;;;;;;11.99;80.21;100931.72;5046681;28;20328;-58
2022/11/03 06:10:28;;;;;;;;;;;;;;;12.00;80.10;100938.69;5050018;28;20022;-58
2022/11/03 06:12:55;;;;;;;;;;;;;;;12.00;80.34;100933.38;5051522;28;20007;-58
2022/11/03 06:15:27;;;;;;;;;;;;;;;11.99;80.59;100913.91;5050501;28;19916;-58
2022/11/03 06:17:52;;;;;;;;;;;;;;;12.00;80.43;100912.91;5048368;28;19917;-58
2022/11/03 06:20:20;;;;;;;;;;;;;;;12.01;80.57;100919.06;5046068;28;19982;-58
2022/11/03 06:22:47;;;;;;;;;;;;;;;11.98;80.88;100909.59;5045860;28;19917;-58
2022/11/03 06:25:12;;;;;;;;;;;;;;;11.99;80.58;100913.91;5048916;28;19966;-60
2022/11/03 06:27:37;;;;;;;;;;;;;;;11.94;80.46;100908.28;5044058;28;19917;-59
2022/11/03 06:30:18;;;;;;;;;;;;;;;11.98;80.86;100909.59;5049316;28;19940;-59
2022/11/03 06:32:43;;;;;;;;;;;;;;;11.98;80.90;100904.25;5046657;28;19924;-59
2022/11/03 06:35:10;;;;;;;;;;;;;;;12.00;80.94;100896.09;5047882;28;19916;-59
2022/11/03 06:37:35;;;;;;;;;;;;;;;12.00;80.68;100896.94;5051739;28;19973;-59
2022/11/03 06:40:09;;;;;;;;;;;;;;;11.99;80.55;100895.28;5047339;28;19952;-58
2022/11/03 06:42:35;;;;;;;;;;;;;;;11.99;80.78;100900.59;5044328;28;19971;-58
2022/11/03 06:45:01;;;;;;;;;;;;;;;12.00;80.59;100899.59;5053581;28;20030;-59
2022/11/03 06:47:27;;;;;;;;;;;;;;;11.99;80.96;100895.28;5048996;28;19924;-58
2022/11/03 06:49:57;;;;;;;;;;;;;;;11.99;80.62;100895.28;5041343;28;19923;-58
2022/11/03 06:52:22;;;;;;;;;;;;;;;12.00;80.82;100885.44;5058574;28;19954;-58
2022/11/03 06:54:48;;;;;;;;;;;;;;;11.96;80.78;100877.00;5049010;28;20000;-59
2022/11/03 06:57:16;;;;;;;;;;;;;;;12.01;81.05;100879.94;5053603;28;19920;-59
2022/11/03 06:59:42;;;;;;;;;;;;;;;12.01;80.95;100885.28;5042638;28;19927;-58
2022/11/03 07:02:24;;;;;;;;;;;;;;;12.02;81.10;100884.25;5048132;28;20284;-58
2022/11/03 07:04:50;;;;;;;;;;;;;;;12.04;81.03;100876.09;5048588;28;19940;-58
2022/11/03 07:07:15;;;;;;;;;;;;;;;12.04;81.26;100876.09;5049724;28;19921;-58
2022/11/03 07:09:40;;;;;;;;;;;;;;;12.06;81.11;100880.25;5047575;28;19917;-58
2022/11/03 07:12:13;;;;;;;;;;;;;;;12.08;80.99;100882.72;5047407;28;19924;-59
2022/11/03 07:14:38;;;;;;;;;;;;;;;12.10;81.01;100884.19;5041045;28;19913;-58
2022/11/03 07:17:05;;;;;;;;;;;;;;;12.12;80.99;100872.53;5049839;28;19928;-58
2022/11/03 07:19:34;;;;;;;;;;;;;;;12.13;80.73;100874.19;5049067;28;19920;-58
2022/11/03 07:22:01;;;;;;;;;;;;;;;12.13;80.77;100863.53;5044599;28;19926;-60
2022/11/03 07:24:28;;;;;;;;;;;;;;;12.15;80.60;100872.19;5043492;28;20328;-58
2022/11/03 07:27:12;;;;;;;;;;;;;;;12.17;80.34;100878.16;5047025;28;19944;-58
2022/11/03 07:29:38;;;;;;;;;;;;;;;12.18;80.45;100869.19;5045805;28;19966;-58
2022/11/03 07:32:08;;;;;;;;;;;;;;;12.18;80.62;100871.84;5049121;28;19921;-59
2022/11/03 07:34:33;;;;;;;;;;;;;;;12.20;80.21;100864.50;5048846;28;19920;-58
2022/11/03 07:36:59;;;;;;;;;;;;;;;12.22;80.15;100863.31;5048178;28;19921;-58
2022/11/03 07:39:27;;;;;;;;;;;;;;;12.24;80.25;100852.47;5049742;28;19931;-58
2022/11/03 07:41:52;;;;;;;;;;;;;;;12.25;80.22;100852.28;5045313;28;19917;-59
2022/11/03 07:44:20;;;;;;;;;;;;;;;12.26;79.95;100848.63;5047174;28;19913;-58
2022/11/03 07:46:46;;;;;;;;;;;;;;;12.30;79.96;100849.91;5049346;28;19912;-58
2022/11/03 07:49:22;;;;;;;;;;;;;;;12.31;79.72;100851.56;5043114;28;20399;-58
2022/11/03 07:51:49;;;;;;;;;;;;;;;12.34;79.81;100856.53;5043480;28;19921;-59
2022/11/03 07:54:17;;;;;;;;;;;;;;;12.36;79.59;100857.16;5048301;28;19924;-59
2022/11/03 07:56:42;;;;;;;;;;;;;;;12.37;79.46;100855.31;5046362;28;19929;-59
2022/11/03 07:59:07;;;;;;;;;;;;;;;12.39;79.80;100855.97;5046406;28;19917;-60
2022/11/03 08:01:39;;;;;;;;;;;;;;;12.39;79.39;100847.97;5048276;28;19913;-58
2022/11/03 08:04:11;;;;;;;;;;;;;;;12.41;79.20;100857.44;5043610;28;20018;-58
2022/11/03 08:06:36;;;;;;;;;;;;;;;12.41;79.27;100860.09;5053024;28;19940;-60
2022/11/03 08:09:01;;;;;;;;;;;;;;;12.37;79.07;100842.00;5052130;28;20393;-59
2022/11/03 08:11:27;;;;;;;;;;;;;;;12.43;79.23;100843.13;5046740;28;20014;-58
2022/11/03 08:13:52;;;;;;;;;;;;;;;12.46;79.09;100840.13;5054450;28;19913;-58
2022/11/03 08:16:18;;;;;;;;;;;;;;;12.48;79.08;100838.91;5050896;28;19956;-59
2022/11/03 08:18:43;;;;;;;;;;;;;;;12.52;78.66;100837.53;5046884;28;19913;-58
2022/11/03 08:21:09;;;;;;;;;;;;;;;12.53;79.04;100828.53;5046940;28;20481;-59
2022/11/03 08:23:34;;;;;;;;;;;;;;;12.56;78.86;100824.69;5052097;28;19963;-58
2022/11/03 08:25:59;;;;;;;;;;;;;;;12.58;78.25;100809.34;5047631;28;19952;-58
2022/11/03 08:28:25;;;;;;;;;;;;;;;12.59;78.33;100798.50;5047737;28;20396;-58
2022/11/03 08:30:50;;;;;;;;;;;;;;;12.64;78.19;100789.94;5047626;28;19940;-58
2022/11/03 08:33:15;;;;;;;;;;;;;;;12.68;78.02;100785.88;5045600;28;19944;-58
2022/11/03 08:35:40;;;;;;;;;;;;;;;12.71;77.99;100781.00;5045435;28;19927;-59
2022/11/03 08:38:06;;;;;;;;;;;;;;;12.73;77.66;100774.69;5048655;28;20261;-58
2022/11/03 08:40:31;;;;;;;;;;;;;;;12.76;77.79;100775.16;5047291;28;19913;-58
2022/11/03 08:42:56;;;;;;;;;;;;;;;12.79;77.88;100766.78;5048681;28;20396;-58
2022/11/03 08:45:21;;;;;;;;;;;;;;;12.79;77.61;100757.97;5048617;28;19913;-58
2022/11/03 08:47:46;;;;;;;;;;;;;;;12.83;77.33;100751.25;5047289;28;19948;-58
2022/11/03 08:50:12;;;;;;;;;;;;;;;12.86;77.13;100737.53;5049860;28;19920;-59
2022/11/03 08:52:37;;;;;;;;;;;;;;;12.89;77.16;100724.66;5045342;28;20011;-57
2022/11/03 08:55:02;;;;;;;;;;;;;;;12.92;76.92;100718.94;5047433;28;19924;-59
2022/11/03 08:57:28;;;;;;;;;;;;;;;12.95;77.00;100715.06;5047512;28;19992;-58
2022/11/03 08:59:54;;;;;;;;;;;;;;;13.00;76.63;100716.16;5045434;28;19913;-59
2022/11/03 09:02:20;;;;;;;;;;;;;;;13.03;76.37;100717.63;5048748;28;19913;-58
2022/11/03 09:04:45;;;;;;;;;;;;;;;13.07;76.34;100710.09;5044350;28;19937;-59
2022/11/03 09:07:10;;;;;;;;;;;;;;;13.11;76.44;100698.03;5041050;28;20015;-58
2022/11/03 09:09:35;;;;;;;;;;;;;;;13.15;76.39;100683.28;5052204;28;20023;-58
2022/11/03 09:12:00;;;;;;;;;;;;;;;13.18;76.51;100681.09;5049186;28;19912;-59
2022/11/03 09:14:25;;;;;;;;;;;;;;;13.23;76.08;100678.66;5052235;28;19948;-58
2022/11/03 09:16:51;;;;;;;;;;;;;;;13.27;76.09;100677.25;5048662;28;19927;-59
2022/11/03 09:19:16;;;;;;;;;;;;;;;13.31;75.97;100657.22;5050019;28;20525;-59
2022/11/03 09:21:41;;;;;;;;;;;;;;;13.37;75.72;100660.13;5051111;28;19919;-58
2022/11/03 09:24:06;;;;;;;;;;;;;;;13.40;75.03;100654.41;5054295;28;20323;-59
2022/11/03 09:26:31;;;;;;;;;;;;;;;13.44;75.35;100629.00;5048247;28;19949;-58
2022/11/03 09:28:57;;;;;;;;;;;;;;;13.48;75.62;100620.41;5046897;28;19913;-58
2022/11/03 09:31:24;;;;;;;;;;;;;;;13.51;75.06;100614.66;5048882;28;19962;-58
2022/11/03 09:33:50;;;;;;;;;;;;;;;13.54;75.12;100624.13;5051073;28;19945;-59
2022/11/03 09:36:15;;;;;;;;;;;;;;;13.55;74.96;100626.59;5055637;28;20361;-58
2022/11/03 09:38:40;;;;;;;;;;;;;;;13.56;74.68;100608.75;5050954;28;19999;-58
2022/11/03 09:41:05;;;;;;;;;;;;;;;13.58;74.72;100614.69;5051776;28;19917;-59
2022/11/03 09:43:31;;;;;;;;;;;;;;;13.60;74.32;100612.69;5050924;28;20319;-58
2022/11/03 09:45:56;;;;;;;;;;;;;;;13.63;74.57;100596.28;5051161;28;19920;-59
2022/11/03 09:48:22;;;;;;;;;;;;;;;13.64;74.94;100593.41;5050739;28;20031;-58
2022/11/03 09:50:49;;;;;;;;;;;;;;;13.67;74.73;100586.88;5046822;28;20486;-59
2022/11/03 09:53:14;;;;;;;;;;;;;;;13.67;74.57;100581.53;5056146;28;19913;-59
2022/11/03 09:55:39;;;;;;;;;;;;;;;13.68;74.96;100577.00;5049998;28;19920;-58
2022/11/03 09:58:11;;;;;;;;;;;;;;;13.67;74.99;100578.84;5050836;28;19967;-59
2022/11/03 10:00:36;;;;;;;;;;;;;;;13.66;74.69;100573.72;5049822;28;20583;-59
2022/11/03 10:03:02;;;;;;;;;;;;;;;13.64;74.92;100576.59;5044444;28;19919;-58
2022/11/03 10:05:27;;;;;;;;;;;;;;;13.66;74.48;100553.19;5050966;28;19913;-58
2022/11/03 10:07:56;;;;;;;;;;;;;;;13.63;74.74;100570.44;5049327;28;20429;-58
2022/11/03 10:10:21;;;;;;;;;;;;;;;13.63;74.63;100559.75;5049465;28;19966;-58
2022/11/03 10:12:47;;;;;;;;;;;;;;;13.62;74.72;100559.94;5049882;28;20432;-58
2022/11/03 10:15:16;;;;;;;;;;;;;;;13.61;74.60;100545.78;5050231;28;19920;-58
2022/11/03 10:17:42;;;;;;;;;;;;;;;13.62;74.71;100546.63;5053984;28;20412;-59
2022/11/03 10:20:15;;;;;;;;;;;;;;;13.60;74.27;100549.47;5049044;28;19982;-59
2022/11/03 10:22:41;;;;;;;;;;;;;;;13.59;74.01;100542.50;5048976;28;19921;-58
2022/11/03 10:25:25;;;;;;;;;;;;;;;13.60;74.27;100544.16;5048796;28;19944;-59
2022/11/03 10:27:50;;;;;;;;;;;;;;;13.61;74.26;100537.78;5049462;28;19913;-59
2022/11/03 10:30:15;;;;;;;;;;;;;;;13.63;74.20;100532.25;5049166;28;19939;-58
2022/11/03 10:32:41;;;;;;;;;;;;;;;13.66;74.19;100523.03;5052422;28;19913;-58
2022/11/03 10:35:29;;;;;;;;;;;;;;;13.67;73.96;100530.81;5056959;28;20002;-59
2022/11/03 10:37:54;;;;;;;;;;;;;;;13.72;74.03;100514.22;5051487;28;19923;-59
2022/11/03 10:40:32;;;;;;;;;;;;;;;13.77;73.80;100519.78;5047546;28;19917;-58
2022/11/03 10:42:58;;;;;;;;;;;;;;;13.82;73.58;100503.97;5048391;28;20281;-60
2022/11/03 10:45:23;;;;;;;;;;;;;;;13.87;73.93;100502.34;5043977;28;19919;-58
2022/11/03 10:47:59;;;;;;;;;;;;;;;13.90;73.45;100498.50;5051145;28;19956;-60
2022/11/03 10:50:25;;;;;;;;;;;;;;;13.94;73.08;100495.22;5046345;28;19920;-59
2022/11/03 10:52:50;;;;;;;;;;;;;;;13.96;73.05;100489.66;5055834;28;19962;-59
2022/11/03 10:55:16;;;;;;;;;;;;;;;14.00;73.41;100487.41;5049593;28;19921;-59
2022/11/03 10:57:42;;;;;;;;;;;;;;;14.04;73.25;100494.81;5045141;28;19927;-58
2022/11/03 11:00:17;;;;;;;;;;;;;;;14.08;72.79;100482.69;5050550;28;19912;-58
2022/11/03 11:02:43;;;;;;;;;;;;;;;14.13;72.95;100484.75;5044875;28;19917;-60
2022/11/03 11:05:14;;;;;;;;;;;;;;;14.18;72.61;100475.16;5052282;28;20585;-59
2022/11/03 11:07:40;;;;;;;;;;;;;;;14.23;72.46;100469.19;5054028;28;19960;-59
2022/11/03 11:10:06;;;;;;;;;;;;;;;14.26;72.20;100474.94;5047882;28;19948;-59
2022/11/03 11:12:31;;;;;;;;;;;;;;;14.32;72.40;100469.81;5047572;28;20335;-59
2022/11/03 11:14:57;;;;;;;;;;;;;;;14.35;71.96;100472.88;5051114;28;20012;-58
2022/11/03 11:17:41;;;;;;;;;;;;;;;14.38;71.93;100460.97;5048444;28;20602;-58
2022/11/03 11:20:22;;;;;;;;;;;;;;;14.40;71.42;100461.59;5045984;28;19982;-59
2022/11/03 11:22:48;;;;;;;;;;;;;;;14.41;70.68;100457.88;5050970;28;20300;-58
2022/11/03 11:25:14;;;;;;;;;;;;;;;14.41;70.57;100455.22;5047563;28;20586;-60
2022/11/03 11:27:45;;;;;;;;;;;;;;;14.44;70.24;100447.63;5056719;28;19912;-59
2022/11/03 11:30:19;;;;;;;;;;;;;;;14.48;70.08;100440.06;5041723;28;19925;-59
2022/11/03 11:32:44;;;;;;;;;;;;;;;14.50;70.17;100430.00;5048217;28;19925;-59
2022/11/03 11:35:29;;;;;;;;;;;;;;;14.53;70.12;100414.38;5038524;28;19917;-58
2022/11/03 11:37:54;;;;;;;;;;;;;;;14.60;70.54;100410.84;5049277;28;19927;-59
2022/11/03 11:40:22;;;;;;;;;;;;;;;14.66;70.53;100399.31;5046650;28;19924;-59
2022/11/03 11:43:05;;;;;;;;;;;;;;;14.73;70.16;100392.13;5054244;28;19916;-60
2022/11/03 11:45:49;;;;;;;;;;;;;;;14.82;69.88;100394.38;5044638;28;19920;-60
2022/11/03 11:48:17;;;;;;;;;;;;;;;14.88;68.99;100382.03;5044689;28;19925;-59
2022/11/03 11:50:42;;;;;;;;;;;;;;;14.87;68.06;100370.50;5043772;28;19913;-59
2022/11/03 11:53:11;;;;;;;;;;;;;;;14.88;67.72;100374.81;5044204;28;19921;-59
2022/11/03 11:55:39;;;;;;;;;;;;;;;14.88;67.45;100361.44;5047862;28;19931;-58
2022/11/03 11:58:22;;;;;;;;;;;;;;;14.92;66.99;100345.81;5052307;28;20689;-59
2022/11/03 12:00:58;;;;;;;;;;;;;;;14.96;67.23;100336.31;5041128;28;19924;-59
2022/11/03 12:03:40;;;;;;;;;;;;;;;14.99;66.75;100319.84;5036927;28;19924;-59
2022/11/03 12:06:05;;;;;;;;;;;;;;;15.02;67.22;100308.72;5044246;28;19939;-59
2022/11/03 12:08:31;;;;;;;;;;;;;;;15.07;67.54;100298.25;5045176;28;20400;-60
2022/11/03 12:11:00;;;;;;;;;;;;;;;15.14;67.56;100300.88;5043736;28;19917;-59
2022/11/03 12:13:45;;;;;;;;;;;;;;;15.15;66.36;100302.53;5040561;28;19952;-59
2022/11/03 12:16:26;;;;;;;;;;;;;;;15.11;66.37;100296.78;5053875;28;19920;-58
2022/11/03 12:18:52;;;;;;;;;;;;;;;15.16;66.81;100296.94;5047125;28;19913;-59
2022/11/03 12:21:35;;;;;;;;;;;;;;;15.21;66.58;100290.97;5050885;28;19966;-57
2022/11/03 12:24:21;;;;;;;;;;;;;;;15.26;66.31;100284.97;5045766;28;19956;-57
2022/11/03 12:26:46;;;;;;;;;;;;;;;15.27;65.90;100289.28;5040926;28;19967;-58
2022/11/03 12:29:11;;;;;;;;;;;;;;;15.29;65.94;100284.53;5056398;28;19959;-57
2022/11/03 12:31:36;;;;;;;;;;;;;;;15.37;65.89;100284.28;5042217;28;20427;-58
2022/11/03 12:34:01;;;;;;;;;;;;;;;15.46;65.58;100278.47;5048091;28;19912;-57
2022/11/03 12:36:26;;;;;;;;;;;;;;;15.61;65.42;100280.03;5054297;28;20556;-58
2022/11/03 12:38:52;;;;;;;;;;;;;;;15.74;65.63;100269.22;5054078;28;19928;-57
2022/11/03 12:41:20;;;;;;;;;;;;;;;15.86;65.59;100256.75;5045435;28;19912;-57
2022/11/03 12:43:46;;;;;;;;;;;;;;;15.88;64.57;100251.19;5057394;28;19912;-57
2022/11/03 12:46:11;;;;;;;;;;;;;;;15.85;64.67;100240.91;5041164;28;19939;-57
2022/11/03 12:48:36;;;;;;;;;;;;;;;15.86;64.58;100243.38;5043347;28;20376;-58
2022/11/03 12:51:02;;;;;;;;;;;;;;;15.86;64.49;100227.31;5046725;28;20402;-57
2022/11/03 12:53:27;;;;;;;;;;;;;;;15.90;65.26;100222.31;5046827;28;19943;-57
2022/11/03 12:55:52;;;;;;;;;;;;;;;16.02;65.15;100231.28;5043362;28;19917;-57
2022/11/03 12:58:17;;;;;;;;;;;;;;;16.10;64.79;100226.47;5042506;28;19921;-57
2022/11/03 13:00:43;;;;;;;;;;;;;;;16.13;63.04;100227.06;5047250;28;19943;-57